Time;durP1;ratioP1;P1;durP2;ratioP2;P2;SDS_P1;SDS_P2;PMS_P1;PMS_P2;Temp;Humidity;BMP_temperature;BMP_pressure;BME280_temperature;BME280_humidity;BME280_pressure;Samples;Min_cycle;Max_cycle;Signal;HPM_P1;HPM_P2
2022/09/02 00:00:59;185765.00;0.62;321.42;0.00;0.00;0.62;;;;;20.70;1.00;;;;;;2272782;61;1131;-87
2022/09/02 00:03:29;57267.00;0.19;99.75;0.00;0.00;0.62;;;;;20.50;1.00;;;;;;2272648;61;1018;-86
2022/09/02 00:05:57;65490.00;0.22;113.97;0.00;0.00;0.62;;;;;20.50;1.00;;;;;;2272716;61;1534;-86
2022/09/02 00:08:24;35700.00;0.12;62.45;0.00;0.00;0.62;;;;;20.30;1.00;;;;;;2272705;61;1385;-86
2022/09/02 00:10:51;0.00;0.00;0.62;0.00;0.00;0.62;;;;;19.80;1.00;;;;;;2271989;61;1110;-85
2022/09/02 00:13:19;26173.00;0.09;45.96;0.00;0.00;0.62;;;;;19.00;1.00;;;;;;2272477;61;1058;-85
2022/09/02 00:15:47;0.00;0.00;0.62;0.00;0.00;0.62;;;;;18.70;1.00;;;;;;2272471;61;1927;-85
2022/09/02 00:18:15;556.00;0.00;1.58;0.00;0.00;0.62;;;;;18.60;1.00;;;;;;2272462;61;1297;-86
2022/09/02 00:20:47;90921.00;0.30;157.90;0.00;0.00;0.62;;;;;18.40;1.00;;;;;;2272506;61;1133;-86
2022/09/02 00:23:15;0.00;0.00;0.62;0.00;0.00;0.62;;;;;18.50;1.00;;;;;;2272487;61;1079;-86
2022/09/02 00:25:43;31937.00;0.11;55.94;0.00;0.00;0.62;;;;;18.50;1.00;;;;;;2272520;61;1295;-87
2022/09/02 00:28:11;74037.00;0.25;128.74;0.00;0.00;0.62;;;;;18.40;1.00;;;;;;2272491;61;1009;-87
2022/09/02 00:30:39;0.00;0.00;0.62;0.00;0.00;0.62;;;;;18.40;1.00;;;;;;2272451;61;1074;-86
2022/09/02 00:33:07;11167.00;0.04;19.97;0.00;0.00;0.62;;;;;18.00;1.00;;;;;;2272490;61;1047;-85
2022/09/02 00:35:34;340.00;0.00;1.21;0.00;0.00;0.62;;;;;17.90;1.00;;;;;;2272407;61;1999;-87
2022/09/02 00:38:03;696.00;0.00;1.83;0.00;0.00;0.62;;;;;17.90;1.00;;;;;;2272487;61;1023;-86
2022/09/02 00:40:31;39242.00;0.13;68.58;0.00;0.00;0.62;;;;;18.00;1.00;;;;;;2272378;61;1400;-87
2022/09/02 00:42:58;46175.00;0.15;80.57;0.00;0.00;0.62;;;;;18.40;1.00;;;;;;2272410;61;1137;-86
2022/09/02 00:45:26;0.00;0.00;0.62;0.00;0.00;0.62;;;;;18.50;1.00;;;;;;2272332;61;1090;-86
2022/09/02 00:47:52;3695.00;0.01;7.02;0.00;0.00;0.62;;;;;18.70;1.00;;;;;;2272125;61;1078;-85
2022/09/02 00:50:26;16112.00;0.05;28.54;0.00;0.00;0.62;;;;;18.90;1.00;;;;;;2272326;61;1294;-86
2022/09/02 00:52:58;130397.00;0.43;226.01;0.00;0.00;0.62;;;;;19.00;1.00;;;;;;2272349;61;1111;-85
2022/09/02 00:55:30;0.00;0.00;0.62;0.00;0.00;0.62;;;;;19.10;1.00;;;;;;2272355;61;1920;-85
2022/09/02 00:58:01;10703.00;0.04;19.17;0.00;0.00;0.62;;;;;18.70;1.00;;;;;;2272373;61;1047;-87
2022/09/02 01:00:31;68680.00;0.23;119.48;0.00;0.00;0.62;;;;;18.70;1.00;;;;;;2272255;61;1559;-86
2022/09/02 01:03:01;50881.00;0.17;88.71;0.00;0.00;0.62;;;;;19.10;1.00;;;;;;2272318;61;1036;-85
2022/09/02 01:05:31;0.00;0.00;0.62;0.00;0.00;0.62;;;;;19.10;1.00;;;;;;2272305;61;1092;-84
2022/09/02 01:07:59;0.00;0.00;0.62;0.00;0.00;0.62;;;;;19.10;1.00;;;;;;2272291;61;1042;-85
2022/09/02 01:10:32;37031.00;0.12;64.75;0.00;0.00;0.62;;;;;19.40;1.00;;;;;;2272288;61;1407;-85
2022/09/02 01:13:03;103068.00;0.34;178.87;0.00;0.00;0.62;;;;;19.70;1.00;;;;;;2272270;61;1050;-85
2022/09/02 01:15:30;75478.00;0.25;131.23;0.00;0.00;0.62;;;;;19.90;1.00;;;;;;2272231;61;2010;-85
2022/09/02 01:17:59;0.00;0.00;0.62;0.00;0.00;0.62;;;;;20.00;1.00;;;;;;2272282;61;948;-86
2022/09/02 01:20:26;122006.00;0.41;211.54;0.00;0.00;0.62;;;;;19.90;1.00;;;;;;2272316;61;1281;-85
2022/09/02 01:22:57;86514.00;0.29;150.29;12607.00;0.04;22.47;;;;;19.70;1.00;;;;;;2272160;61;999;-86
2022/09/02 01:25:27;0.00;0.00;0.62;0.00;0.00;0.62;;;;;19.50;1.00;;;;;;2272296;61;1101;-86
2022/09/02 01:27:59;126827.00;0.42;219.86;0.00;0.00;0.62;;;;;19.30;1.00;;;;;;2272187;61;1816;-85
2022/09/02 01:30:26;119884.00;0.40;207.88;53132.00;0.18;92.60;;;;;18.90;1.00;;;;;;2272443;61;1417;-86
2022/09/02 01:32:54;147710.00;0.49;255.86;0.00;0.00;0.62;;;;;18.50;1.00;;;;;;2272425;61;1746;-85
2022/09/02 01:35:21;90086.00;0.30;156.46;22026.00;0.07;38.78;;;;;18.50;1.00;;;;;;2272391;61;1994;-86
2022/09/02 01:37:48;0.00;0.00;0.62;0.00;0.00;0.62;;;;;18.10;1.00;;;;;;2272474;61;925;-86
2022/09/02 01:40:18;0.00;0.00;0.62;0.00;0.00;0.62;;;;;17.80;1.00;;;;;;2272377;61;1356;-88
2022/09/02 01:42:46;0.00;0.00;0.62;0.00;0.00;0.62;;;;;17.60;1.00;;;;;;2272459;61;1105;-85
2022/09/02 01:45:14;0.00;0.00;0.62;0.00;0.00;0.62;;;;;17.50;1.00;;;;;;2272328;61;1141;-85
2022/09/02 01:47:41;0.00;0.00;0.62;0.00;0.00;0.62;;;;;17.40;1.00;;;;;;2272408;61;1031;-85
2022/09/02 01:50:09;10526.00;0.04;18.86;0.00;0.00;0.62;;;;;17.60;1.00;;;;;;2272341;61;1311;-85
2022/09/02 01:52:36;23436.00;0.08;41.22;0.00;0.00;0.62;;;;;18.30;1.00;;;;;;2272387;61;1022;-86
2022/09/02 01:55:05;28103.00;0.09;49.30;0.00;0.00;0.62;;;;;18.80;1.00;;;;;;2272306;61;1919;-86
2022/09/02 01:57:33;180872.00;0.60;312.99;48483.00;0.16;84.56;;;;;19.50;1.00;;;;;;2272366;61;1094;-85
2022/09/02 02:00:01;53077.00;0.18;92.51;0.00;0.00;0.62;;;;;19.50;1.00;;;;;;2272314;61;1473;-86
2022/09/02 02:02:28;79163.00;0.26;137.59;74.00;0.00;0.75;;;;;19.80;1.00;;;;;;2272341;61;1765;-88
2022/09/02 02:04:55;24362.00;0.08;42.82;0.00;0.00;0.62;;;;;19.90;1.00;;;;;;2272296;61;1543;-86
2022/09/02 02:07:23;78925.00;0.26;137.18;0.00;0.00;0.62;;;;;20.20;1.00;;;;;;2272270;61;1430;-87
2022/09/02 02:09:51;2217.00;0.01;4.46;0.00;0.00;0.62;;;;;20.40;1.00;;;;;;2272299;61;1278;-85
2022/09/02 02:12:19;30684.00;0.10;53.77;0.00;0.00;0.62;;;;;20.20;1.00;;;;;;2272348;61;1041;-85
2022/09/02 02:14:47;179294.00;0.60;310.27;0.00;0.00;0.62;;;;;19.70;1.00;;;;;;2272247;61;1920;-85
2022/09/02 02:17:14;0.00;0.00;0.62;0.00;0.00;0.62;;;;;19.70;1.00;;;;;;2272331;61;1075;-86
2022/09/02 02:19:42;220323.00;0.73;380.90;0.00;0.00;0.62;;;;;20.00;1.00;;;;;;2272214;61;1289;-87
2022/09/02 02:22:09;103114.00;0.34;178.95;0.00;0.00;0.62;;;;;20.30;1.00;;;;;;2272320;61;1173;-86
2022/09/02 02:24:36;98736.00;0.33;171.39;0.00;0.00;0.62;;;;;20.40;1.00;;;;;;2272327;61;1083;-86
2022/09/02 02:27:04;148743.00;0.50;257.64;0.00;0.00;0.62;;;;;20.40;1.00;;;;;;2272290;61;1048;-87
2022/09/02 02:29:31;26690.00;0.09;46.85;0.00;0.00;0.62;;;;;20.50;1.00;;;;;;2272215;61;1315;-84
2022/09/02 02:31:59;720659.00;2.40;1243.08;288330.00;0.96;497.86;;;;;20.00;1.00;;;;;;2272306;61;1047;-85
2022/09/02 02:34:26;96470.00;0.32;167.48;0.00;0.00;0.62;;;;;19.70;1.00;;;;;;2272251;61;1101;-85
2022/09/02 02:36:53;129430.00;0.43;224.35;0.00;0.00;0.62;;;;;19.60;1.00;;;;;;2272276;61;1106;-84
2022/09/02 02:39:21;0.00;0.00;0.62;0.00;0.00;0.62;;;;;19.30;1.00;;;;;;2272202;61;1432;-85
2022/09/02 02:41:49;226082.00;0.75;390.81;0.00;0.00;0.62;;;;;19.10;1.00;;;;;;2272161;61;1381;-86
2022/09/02 02:44:16;179244.00;0.60;310.19;36731.00;0.12;64.23;;;;;18.80;1.00;;;;;;2272149;61;2159;-85
2022/09/02 02:46:46;168624.00;0.56;291.90;0.00;0.00;0.62;;;;;18.70;1.00;;;;;;2272159;61;1470;-86
2022/09/02 02:49:15;117698.00;0.39;204.11;0.00;0.00;0.62;;;;;19.10;1.00;;;;;;2272155;61;1388;-85
2022/09/02 02:51:43;80564.00;0.27;140.01;0.00;0.00;0.62;;;;;19.50;1.00;;;;;;2272260;61;953;-86
2022/09/02 02:54:13;84367.00;0.28;146.58;0.00;0.00;0.62;;;;;19.80;1.00;;;;;;2272119;61;1003;-88
2022/09/02 02:56:40;318673.00;1.06;550.02;83265.00;0.28;144.68;;;;;20.00;1.00;;;;;;2272198;61;1920;-88
2022/09/02 02:59:08;92365.00;0.31;160.39;0.00;0.00;0.62;;;;;20.20;1.00;;;;;;2272153;61;2145;-88
2022/09/02 03:01:35;31430.00;0.10;55.06;0.00;0.00;0.62;;;;;20.30;1.00;;;;;;2272199;61;1126;-87
2022/09/02 03:04:02;94233.00;0.31;163.62;0.00;0.00;0.62;;;;;20.20;1.00;;;;;;2272178;61;1437;-86
2022/09/02 03:06:30;89592.00;0.30;155.60;0.00;0.00;0.62;;;;;20.30;1.00;;;;;;2272182;61;1523;-87
2022/09/02 03:08:59;155787.00;0.52;269.78;0.00;0.00;0.62;;;;;20.30;1.00;;;;;;2272114;61;1605;-87
2022/09/02 03:11:27;169816.00;0.57;293.95;0.00;0.00;0.62;;;;;20.00;1.00;;;;;;2272638;61;1181;-89
2022/09/02 03:13:55;262166.00;0.87;452.87;11455.00;0.04;20.47;;;;;20.20;1.00;;;;;;2272824;61;1038;-86
2022/09/02 03:16:22;15968.00;0.05;28.29;0.00;0.00;0.62;;;;;20.30;1.00;;;;;;2272850;61;2012;-85
2022/09/02 03:18:50;175572.00;0.59;303.86;0.00;0.00;0.62;;;;;19.90;1.00;;;;;;2272858;61;1282;-85
2022/09/02 03:21:18;92338.00;0.31;160.34;0.00;0.00;0.62;;;;;19.90;1.00;;;;;;2272811;61;1407;-85
2022/09/02 03:23:47;0.00;0.00;0.62;0.00;0.00;0.62;;;;;19.90;1.00;;;;;;2272855;61;1146;-87
2022/09/02 03:26:19;254787.00;0.85;440.18;33480.00;0.11;58.61;;;;;20.10;1.00;;;;;;2272831;61;1504;-88
2022/09/02 03:28:47;0.00;0.00;0.62;0.00;0.00;0.62;;;;;20.20;1.00;;;;;;2272781;61;1526;-85
2022/09/02 03:31:16;7465.00;0.02;13.56;0.00;0.00;0.62;;;;;19.80;1.00;;;;;;2272818;61;1059;-85
2022/09/02 03:33:44;0.00;0.00;0.62;0.00;0.00;0.62;;;;;19.70;1.00;;;;;;2272776;61;1075;-85
2022/09/02 03:36:20;162485.00;0.54;281.32;0.00;0.00;0.62;;;;;19.50;1.00;;;;;;2272704;61;1917;-87
2022/09/02 03:38:49;0.00;0.00;0.62;0.00;0.00;0.62;;;;;19.40;1.00;;;;;;2272830;61;1345;-86
2022/09/02 03:41:16;68044.00;0.23;118.38;0.00;0.00;0.62;;;;;19.70;1.00;;;;;;2272807;61;1152;-85
2022/09/02 03:43:43;161167.00;0.54;279.05;0.00;0.00;0.62;;;;;19.80;1.00;;;;;;2272663;61;1306;-86
2022/09/02 03:46:10;122094.00;0.41;211.69;0.00;0.00;0.62;;;;;19.80;1.00;;;;;;2272757;61;1427;-86
2022/09/02 03:48:36;53097.00;0.18;92.54;0.00;0.00;0.62;;;;;20.00;1.00;;;;;;2272764;61;1407;-85
2022/09/02 03:51:11;218488.00;0.73;377.74;0.00;0.00;0.62;;;;;20.00;1.00;;;;;;2272802;61;1039;-84
2022/09/02 03:53:38;171793.00;0.57;297.35;54147.00;0.18;94.36;;;;;19.90;1.00;;;;;;2272734;61;1542;-86
2022/09/02 03:56:11;126845.00;0.42;219.89;0.00;0.00;0.62;;;;;19.80;1.00;;;;;;2272698;61;1994;-87
2022/09/02 03:58:38;202454.00;0.67;350.15;74102.00;0.25;128.85;;;;;19.80;1.00;;;;;;2272752;61;1321;-85
2022/09/02 04:01:06;119165.00;0.40;206.64;0.00;0.00;0.62;;;;;19.70;1.00;;;;;;2272786;61;1163;-86
2022/09/02 04:03:33;82246.00;0.27;142.92;0.00;0.00;0.62;;;;;19.80;1.00;;;;;;2272744;61;1023;-85
2022/09/02 04:06:00;159408.00;0.53;276.02;0.00;0.00;0.62;;;;;19.90;1.00;;;;;;2272707;61;1014;-85
2022/09/02 04:08:27;0.00;0.00;0.62;0.00;0.00;0.62;;;;;20.00;1.00;;;;;;2272688;61;1273;-85
2022/09/02 04:10:55;100890.00;0.34;175.11;0.00;0.00;0.62;;;;;19.90;1.00;;;;;;2272733;61;1139;-86
2022/09/02 04:13:23;151688.00;0.51;262.72;0.00;0.00;0.62;;;;;19.90;1.00;;;;;;2272705;61;993;-87
2022/09/02 04:15:50;149304.00;0.50;258.61;0.00;0.00;0.62;;;;;20.00;1.00;;;;;;2272660;61;1994;-86
2022/09/02 04:18:18;127233.00;0.42;220.56;0.00;0.00;0.62;;;;;19.90;1.00;;;;;;2272681;61;1304;-86
2022/09/02 04:20:45;79758.00;0.27;138.62;0.00;0.00;0.62;;;;;19.70;1.00;;;;;;2272634;61;1058;-86
2022/09/02 04:23:12;0.00;0.00;0.62;0.00;0.00;0.62;;;;;19.90;1.00;;;;;;2272398;61;1048;-86
2022/09/02 04:25:41;38247.00;0.13;66.86;0.00;0.00;0.62;;;;;19.90;1.00;;;;;;2272684;61;1040;-86
2022/09/02 04:28:08;34519.00;0.12;60.40;0.00;0.00;0.62;;;;;19.70;1.00;;;;;;2272648;61;961;-88
2022/09/02 04:30:38;179765.00;0.60;311.08;0.00;0.00;0.62;;;;;19.70;1.00;;;;;;2272622;61;1332;-87
2022/09/02 04:33:05;113157.00;0.38;196.28;0.00;0.00;0.62;;;;;19.90;1.00;;;;;;2272661;61;1223;-87
2022/09/02 04:35:34;73978.00;0.25;128.63;0.00;0.00;0.62;;;;;20.00;1.00;;;;;;2272587;61;1924;-87
2022/09/02 04:38:01;0.00;0.00;0.62;0.00;0.00;0.62;;;;;20.10;1.00;;;;;;2272680;61;1027;-86
2022/09/02 04:40:28;109397.00;0.36;189.79;0.00;0.00;0.62;;;;;20.00;1.00;;;;;;2272595;61;1311;-87
2022/09/02 04:42:55;0.00;0.00;0.62;0.00;0.00;0.62;;;;;19.90;1.00;;;;;;2272606;61;1070;-84
2022/09/02 04:45:22;198416.00;0.66;343.20;47444.00;0.16;82.77;;;;;19.80;1.00;;;;;;2272522;61;1016;-85
2022/09/02 04:47:51;247977.00;0.83;428.47;18327.00;0.06;32.37;;;;;19.80;1.00;;;;;;2272580;61;2177;-86
2022/09/02 04:50:18;177584.00;0.59;307.33;0.00;0.00;0.62;;;;;19.70;1.00;;;;;;2272589;61;1318;-86
2022/09/02 04:52:45;148988.00;0.50;258.06;0.00;0.00;0.62;;;;;19.90;1.00;;;;;;2272554;61;1494;-85
2022/09/02 04:55:13;33769.00;0.11;59.11;0.00;0.00;0.62;;;;;20.00;1.00;;;;;;2272502;61;1985;-86
2022/09/02 04:57:41;130477.00;0.43;226.15;0.00;0.00;0.62;;;;;20.00;1.00;;;;;;2272439;61;1557;-84
2022/09/02 05:00:10;42611.00;0.14;74.41;0.00;0.00;0.62;;;;;20.30;1.00;;;;;;2272493;61;1413;-87
2022/09/02 05:02:37;196592.00;0.66;340.06;0.00;0.00;0.62;;;;;20.40;1.00;;;;;;2272436;61;1441;-87
2022/09/02 05:05:07;184541.00;0.62;319.31;0.00;0.00;0.62;;;;;20.30;1.00;;;;;;2272511;61;1347;-86
2022/09/02 05:07:36;0.00;0.00;0.62;0.00;0.00;0.62;;;;;20.40;1.00;;;;;;2272584;61;950;-85
2022/09/02 05:10:05;0.00;0.00;0.62;0.00;0.00;0.62;;;;;20.30;1.00;;;;;;2272474;61;1459;-86
2022/09/02 05:12:34;47147.00;0.16;82.25;0.00;0.00;0.62;;;;;20.30;1.00;;;;;;2272485;61;1100;-87
2022/09/02 05:15:01;0.00;0.00;0.62;0.00;0.00;0.62;;;;;20.50;1.00;;;;;;2272530;61;992;-88
2022/09/02 05:17:30;92894.00;0.31;161.30;0.00;0.00;0.62;;;;;20.40;1.00;;;;;;2272484;61;2002;-86
2022/09/02 05:19:58;0.00;0.00;0.62;0.00;0.00;0.62;;;;;20.30;1.00;;;;;;2272436;61;1456;-86
2022/09/02 05:22:28;207427.00;0.69;358.71;0.00;0.00;0.62;;;;;20.40;1.00;;;;;;2272484;61;916;-85
2022/09/02 05:24:55;130761.00;0.44;226.64;0.00;0.00;0.62;;;;;20.70;1.00;;;;;;2272523;61;1071;-86
2022/09/02 05:27:24;0.00;0.00;0.62;0.00;0.00;0.62;;;;;20.80;1.00;;;;;;2272473;61;1114;-85
2022/09/02 05:29:54;56241.00;0.19;97.98;0.00;0.00;0.62;;;;;21.40;1.00;;;;;;2272023;61;1415;-86
2022/09/02 05:32:21;247.00;0.00;1.05;0.00;0.00;0.62;;;;;22.30;1.00;;;;;;2272449;61;1063;-87
2022/09/02 05:34:48;68404.00;0.23;119.00;0.00;0.00;0.62;;;;;23.30;1.00;;;;;;2272353;61;1109;-86
2022/09/02 05:37:16;22621.00;0.08;39.81;0.00;0.00;0.62;;;;;24.20;1.00;;;;;;2272466;61;1994;-86
2022/09/02 05:39:44;199450.00;0.66;344.98;0.00;0.00;0.62;;;;;25.20;1.00;;;;;;2272427;61;1372;-87
2022/09/02 05:42:11;123627.00;0.41;214.34;0.00;0.00;0.62;;;;;25.10;1.00;;;;;;2272459;61;907;-86
2022/09/02 05:44:38;211564.00;0.71;365.83;0.00;0.00;0.62;;;;;25.60;1.00;;;;;;2272303;61;1083;-87
2022/09/02 05:47:06;28717.00;0.10;50.36;0.00;0.00;0.62;;;;;26.30;1.00;;;;;;2272334;61;1099;-87
2022/09/02 05:49:33;0.00;0.00;0.62;0.00;0.00;0.62;;;;;26.60;1.00;;;;;;2272306;61;1307;-87
2022/09/02 05:52:00;0.00;0.00;0.62;0.00;0.00;0.62;;;;;26.70;1.00;;;;;;2272411;61;1064;-88
2022/09/02 05:54:30;0.00;0.00;0.62;0.00;0.00;0.62;;;;;27.10;1.00;;;;;;2272439;61;1015;-87
2022/09/02 05:57:00;177078.00;0.59;306.46;0.00;0.00;0.62;;;;;27.30;1.00;;;;;;2272282;61;1993;-88
2022/09/02 05:59:29;0.00;0.00;0.62;0.00;0.00;0.62;;;;;27.70;1.00;;;;;;2272369;61;1469;-86
2022/09/02 06:01:58;70466.00;0.23;122.57;0.00;0.00;0.62;;;;;28.20;1.00;;;;;;2272347;61;1016;-87
2022/09/02 06:04:25;77737.00;0.26;135.13;0.00;0.00;0.62;;;;;28.40;1.00;;;;;;2272313;61;953;-86
2022/09/02 06:06:53;130236.00;0.43;225.74;0.00;0.00;0.62;;;;;28.70;1.00;;;;;;2272360;61;1041;-87
2022/09/02 06:09:24;94607.00;0.32;164.26;0.00;0.00;0.62;;;;;28.90;1.00;;;;;;2272376;61;1299;-86
2022/09/02 06:11:52;0.00;0.00;0.62;0.00;0.00;0.62;;;;;29.10;1.00;;;;;;2272322;61;1560;-87
2022/09/02 06:14:24;294208.00;0.98;507.96;64504.00;0.22;112.26;;;;;29.20;1.00;;;;;;2272362;61;1018;-87
2022/09/02 06:16:53;339285.00;1.13;585.44;0.00;0.00;0.62;;;;;29.70;1.00;;;;;;2272369;61;1989;-86
2022/09/02 06:19:21;0.00;0.00;0.62;0.00;0.00;0.62;;;;;29.90;1.00;;;;;;2272236;61;1351;-87
2022/09/02 06:21:49;0.00;0.00;0.62;0.00;0.00;0.62;;;;;29.80;1.00;;;;;;2272311;61;1178;-87
2022/09/02 06:24:16;16488.00;0.05;29.19;0.00;0.00;0.62;;;;;30.30;1.00;;;;;;2272322;61;1105;-87
2022/09/02 06:26:44;20406.00;0.07;35.97;0.00;0.00;0.62;;;;;30.00;1.00;;;;;;2272271;61;1493;-88
2022/09/02 06:29:12;0.00;0.00;0.62;0.00;0.00;0.62;;;;;29.90;1.00;;;;;;2272256;61;1275;-87
2022/09/02 06:31:44;0.00;0.00;0.62;0.00;0.00;0.62;;;;;30.60;1.00;;;;;;2272249;61;1110;-86
2022/09/02 06:34:12;25213.00;0.08;44.30;0.00;0.00;0.62;;;;;30.10;1.00;;;;;;2272279;61;1085;-86
2022/09/02 06:36:40;13902.00;0.05;24.71;0.00;0.00;0.62;;;;;30.60;1.00;;;;;;2272221;61;1911;-86
2022/09/02 06:39:07;0.00;0.00;0.62;0.00;0.00;0.62;;;;;31.60;1.00;;;;;;2272177;61;1589;-87
2022/09/02 06:41:34;0.00;0.00;0.62;0.00;0.00;0.62;;;;;31.60;1.00;;;;;;2272258;61;1066;-85
2022/09/02 06:44:04;53902.00;0.18;93.93;0.00;0.00;0.62;;;;;31.70;1.00;;;;;;2272175;61;1126;-86
2022/09/02 06:46:34;7763.00;0.03;14.07;0.00;0.00;0.62;;;;;31.00;1.00;;;;;;2272030;61;1070;-86
2022/09/02 06:49:03;38900.00;0.13;67.99;0.00;0.00;0.62;;;;;30.40;1.00;;;;;;2272221;61;1313;-86
2022/09/02 06:51:33;92407.00;0.31;160.46;0.00;0.00;0.62;;;;;30.30;1.00;;;;;;2272244;61;1100;-86
2022/09/02 06:54:00;0.00;0.00;0.62;0.00;0.00;0.62;;;;;31.10;1.00;;;;;;2272211;61;1184;-86
2022/09/02 06:56:27;0.00;0.00;0.62;0.00;0.00;0.62;;;;;31.00;1.00;;;;;;2272147;61;1915;-85
2022/09/02 06:58:54;0.00;0.00;0.62;0.00;0.00;0.62;;;;;30.60;1.00;;;;;;2272166;61;1355;-88
2022/09/02 07:01:24;113159.00;0.38;196.28;0.00;0.00;0.62;;;;;31.20;1.00;;;;;;2272121;61;1765;-87
2022/09/02 07:06:40;0.00;0.00;0.62;0.00;0.00;0.62;;;;;31.40;1.00;;;;;;2272256;61;675;-86
2022/09/02 07:09:09;0.00;0.00;0.62;0.00;0.00;0.62;;;;;31.70;1.00;;;;;;2272127;61;1359;-86
2022/09/02 07:11:37;118517.00;0.40;205.52;0.00;0.00;0.62;;;;;31.40;1.00;;;;;;2272069;61;1727;-88
2022/09/02 07:14:04;238883.00;0.80;412.83;47630.00;0.16;83.09;;;;;30.70;1.00;;;;;;2272126;61;1090;-85
2022/09/02 07:16:35;0.00;0.00;0.62;0.00;0.00;0.62;;;;;30.00;1.00;;;;;;2272200;61;1924;-89
2022/09/02 07:19:02;30534.00;0.10;53.51;0.00;0.00;0.62;;;;;30.10;1.00;;;;;;2272136;61;1446;-87
2022/09/02 07:21:29;80446.00;0.27;139.81;0.00;0.00;0.62;;;;;30.10;1.00;;;;;;2272161;61;2080;-88
2022/09/02 07:23:58;0.00;0.00;0.62;0.00;0.00;0.62;;;;;30.00;1.00;;;;;;2272209;61;1001;-86
2022/09/02 07:26:26;92917.00;0.31;161.34;9607.00;0.03;17.27;;;;;29.50;1.00;;;;;;2272105;61;1036;-86
2022/09/02 07:28:53;44499.00;0.15;77.67;0.00;0.00;0.62;;;;;29.50;1.00;;;;;;2272133;61;1294;-85
2022/09/02 07:31:20;0.00;0.00;0.62;0.00;0.00;0.62;;;;;29.20;1.00;;;;;;2272076;61;1173;-86
2022/09/02 07:33:47;11752.00;0.04;20.98;0.00;0.00;0.62;;;;;29.30;1.00;;;;;;2272171;61;1086;-87
2022/09/02 07:36:15;0.00;0.00;0.62;0.00;0.00;0.62;;;;;28.90;1.00;;;;;;2272048;61;1914;-86
2022/09/02 07:38:43;0.00;0.00;0.62;0.00;0.00;0.62;;;;;28.50;1.00;;;;;;2272052;61;1275;-85
2022/09/02 07:41:12;0.00;0.00;0.62;0.00;0.00;0.62;;;;;28.30;1.00;;;;;;2272201;61;1045;-86
2022/09/02 07:43:41;0.00;0.00;0.62;0.00;0.00;0.62;;;;;29.30;1.00;;;;;;2271998;61;1129;-85
2022/09/02 07:46:08;5986.00;0.02;10.99;0.00;0.00;0.62;;;;;30.10;1.00;;;;;;2272127;61;1230;-87
2022/09/02 07:48:36;0.00;0.00;0.62;0.00;0.00;0.62;;;;;30.30;1.00;;;;;;2272034;61;1363;-86
2022/09/02 07:51:04;36113.00;0.12;63.16;0.00;0.00;0.62;;;;;30.60;1.00;;;;;;2272132;61;974;-86
2022/09/02 07:53:31;67182.00;0.22;116.89;0.00;0.00;0.62;;;;;29.90;1.00;;;;;;2272031;61;1541;-86
2022/09/02 07:55:59;20187.00;0.07;35.59;0.00;0.00;0.62;;;;;29.70;1.00;;;;;;2272132;61;1135;-86
2022/09/02 07:58:28;143270.00;0.48;248.21;0.00;0.00;0.62;;;;;28.40;1.00;;;;;;2272780;61;2021;-85
2022/09/02 08:00:56;111662.00;0.37;193.70;0.00;0.00;0.62;;;;;28.60;1.00;;;;;;2272760;61;1101;-87
2022/09/02 08:03:24;0.00;0.00;0.62;0.00;0.00;0.62;;;;;27.70;1.00;;;;;;2272735;61;1704;-86
2022/09/02 08:05:51;43460.00;0.14;75.87;0.00;0.00;0.62;;;;;27.90;1.00;;;;;;2272774;61;925;-85
2022/09/02 08:08:20;0.00;0.00;0.62;0.00;0.00;0.62;;;;;27.80;1.00;;;;;;2272747;61;1405;-85
2022/09/02 08:10:47;0.00;0.00;0.62;0.00;0.00;0.62;;;;;28.60;1.00;;;;;;2272691;61;1077;-86
2022/09/02 08:13:15;0.00;0.00;0.62;0.00;0.00;0.62;;;;;28.50;1.00;;;;;;2272772;61;1311;-85
2022/09/02 08:15:43;0.00;0.00;0.62;0.00;0.00;0.62;;;;;28.70;1.00;;;;;;2272717;61;1021;-86
2022/09/02 08:18:11;192735.00;0.64;333.42;0.00;0.00;0.62;;;;;28.70;1.00;;;;;;2272530;61;2018;-86
2022/09/02 08:20:38;71938.00;0.24;125.11;0.00;0.00;0.62;;;;;28.10;1.00;;;;;;2272625;61;1335;-85
2022/09/02 08:23:06;69465.00;0.23;120.84;0.00;0.00;0.62;;;;;26.90;1.00;;;;;;2272698;61;1622;-86
2022/09/02 08:25:33;0.00;0.00;0.62;0.00;0.00;0.62;;;;;26.50;1.00;;;;;;2272611;61;1027;-87
2022/09/02 08:28:00;36070.00;0.12;63.09;0.00;0.00;0.62;;;;;26.00;1.00;;;;;;2272669;61;1091;-85
2022/09/02 08:30:27;0.00;0.00;0.62;0.00;0.00;0.62;;;;;25.80;1.00;;;;;;2272636;61;1279;-86
2022/09/02 08:32:56;70649.00;0.24;122.88;0.00;0.00;0.62;;;;;26.20;1.00;;;;;;2272750;61;1019;-86
2022/09/02 08:35:23;38253.00;0.13;66.87;0.00;0.00;0.62;;;;;26.70;1.00;;;;;;2272185;61;1094;-86
2022/09/02 08:37:50;282442.00;0.94;487.74;84534.00;0.28;146.87;;;;;26.70;1.00;;;;;;2272542;61;1915;-86
2022/09/02 08:40:20;0.00;0.00;0.62;0.00;0.00;0.62;;;;;26.70;1.00;;;;;;2272698;61;1284;-87
2022/09/02 08:42:51;0.00;0.00;0.62;0.00;0.00;0.62;;;;;26.50;1.00;;;;;;2272675;61;1145;-85
2022/09/02 08:45:23;24249.00;0.08;42.63;0.00;0.00;0.62;;;;;26.30;1.00;;;;;;2272669;61;1067;-86
2022/09/02 08:48:00;0.00;0.00;0.62;0.00;0.00;0.62;;;;;26.10;1.00;;;;;;2272601;61;1123;-85
2022/09/02 08:50:29;0.00;0.00;0.62;0.00;0.00;0.62;;;;;25.20;1.00;;;;;;2272639;61;1409;-85
2022/09/02 08:53:03;47383.00;0.16;82.66;0.00;0.00;0.62;;;;;24.90;1.00;;;;;;2272599;61;1665;-84
2022/09/02 08:55:39;0.00;0.00;0.62;0.00;0.00;0.62;;;;;25.00;1.00;;;;;;2272671;61;1143;-85
2022/09/02 08:58:06;0.00;0.00;0.62;0.00;0.00;0.62;;;;;25.30;1.00;;;;;;2272617;61;1994;-85
2022/09/02 09:00:42;8136.00;0.03;14.72;0.00;0.00;0.62;;;;;25.30;1.00;;;;;;2272597;61;1261;-86
2022/09/02 09:03:24;96972.00;0.32;168.34;0.00;0.00;0.62;;;;;24.80;1.00;;;;;;2272519;61;1537;-87
2022/09/02 09:06:00;0.00;0.00;0.62;0.00;0.00;0.62;;;;;24.50;1.00;;;;;;2272624;61;1038;-86
2022/09/02 09:08:34;55420.00;0.18;96.56;0.00;0.00;0.62;;;;;24.70;1.00;;;;;;2272507;61;1595;-85
2022/09/02 09:11:04;0.00;0.00;0.62;0.00;0.00;0.62;;;;;24.90;1.00;;;;;;2272610;61;1013;-86
2022/09/02 09:14:00;51458.00;0.17;89.71;0.00;0.00;0.62;;;;;24.40;1.00;;;;;;2272506;61;1566;-85
2022/09/02 09:19:03;235325.00;0.78;406.71;0.00;0.00;0.62;;;;;25.30;1.00;;;;;;2277317;61;1966;-86
2022/09/02 09:21:32;150511.00;0.50;260.69;0.00;0.00;0.62;;;;;25.10;1.00;;;;;;2272582;61;1020;-85
2022/09/02 09:24:09;160483.00;0.53;277.87;0.00;0.00;0.62;;;;;24.70;1.00;;;;;;2272378;61;1121;-85
2022/09/02 09:26:41;287861.00;0.96;497.05;32369.00;0.11;56.68;;;;;24.70;1.00;;;;;;2272592;61;1802;-84
2022/09/02 09:29:08;128085.00;0.43;222.03;0.00;0.00;0.62;;;;;25.30;1.00;;;;;;2272437;61;1438;-84
2022/09/02 09:31:37;148479.00;0.49;257.19;0.00;0.00;0.62;;;;;25.50;1.00;;;;;;2272581;61;1027;-86
2022/09/02 09:34:09;90143.00;0.30;156.55;23618.00;0.08;41.53;;;;;25.30;1.00;;;;;;2272502;61;1521;-85
2022/09/02 09:36:52;253396.00;0.84;437.79;84651.00;0.28;147.07;;;;;25.60;1.00;;;;;;2272433;61;1462;-85
2022/09/02 09:39:30;159182.00;0.53;275.63;0.00;0.00;0.62;;;;;26.00;1.00;;;;;;2272398;61;1423;-86
2022/09/02 09:42:00;0.00;0.00;0.62;0.00;0.00;0.62;;;;;25.60;1.00;;;;;;2272541;61;1037;-84
2022/09/02 09:44:46;86703.00;0.29;150.61;0.00;0.00;0.62;;;;;24.90;1.00;;;;;;2272487;61;1542;-85
2022/09/02 09:47:28;169526.00;0.57;293.45;0.00;0.00;0.62;;;;;24.60;1.00;;;;;;2272310;61;1441;-87
2022/09/02 09:50:16;271790.00;0.91;469.42;17297.00;0.06;30.59;;;;;25.00;1.00;;;;;;2272481;61;1568;-86
2022/09/02 09:52:44;165257.00;0.55;286.10;0.00;0.00;0.62;;;;;24.90;1.00;;;;;;2272460;61;1467;-87
2022/09/02 09:55:18;0.00;0.00;0.62;0.00;0.00;0.62;;;;;24.90;1.00;;;;;;2272483;61;1040;-86
2022/09/02 09:57:49;0.00;0.00;0.62;0.00;0.00;0.62;;;;;25.00;1.00;;;;;;2272389;61;1976;-86
2022/09/02 10:00:22;387853.00;1.29;668.92;0.00;0.00;0.62;;;;;24.90;1.00;;;;;;2272345;61;1620;-86
2022/09/02 10:02:51;125793.00;0.42;218.07;0.00;0.00;0.62;;;;;25.10;1.00;;;;;;2272398;61;1085;-86
2022/09/02 10:05:30;46132.00;0.15;80.50;0.00;0.00;0.62;;;;;24.30;1.00;;;;;;2272422;61;1861;-84
2022/09/02 10:07:59;252012.00;0.84;435.41;71818.00;0.24;124.90;;;;;24.10;1.00;;;;;;2272384;61;1297;-85
2022/09/02 10:10:28;162021.00;0.54;280.52;0.00;0.00;0.62;;;;;24.50;1.00;;;;;;2272177;61;1396;-85
2022/09/02 10:12:58;0.00;0.00;0.62;0.00;0.00;0.62;;;;;24.80;1.00;;;;;;2272284;61;1056;-85
2022/09/02 10:15:39;117106.00;0.39;203.09;0.00;0.00;0.62;;;;;24.80;1.00;;;;;;2268295;61;1001;-86
2022/09/02 10:18:23;230192.00;0.77;397.88;66133.00;0.22;115.08;;;;;25.00;1.00;;;;;;2278956;40;3485;-85
2022/09/02 10:21:08;338615.00;1.13;584.29;62132.00;0.21;108.16;;;;;25.00;1.00;;;;;;2272276;61;926;-86
2022/09/02 10:23:52;479244.00;1.60;826.10;66078.00;0.22;114.98;;;;;24.80;1.00;;;;;;2272268;61;1604;-85
2022/09/02 10:26:29;47170.00;0.16;82.29;0.00;0.00;0.62;;;;;24.90;1.00;;;;;;2272223;61;2165;-86
2022/09/02 10:29:40;173487.00;0.58;300.27;0.00;0.00;0.62;;;;;24.70;1.00;;;;;;2272272;61;1425;-86